sensor_id;sensor_type;location;lat;lon;timestamp;pressure;altitude;pressure_sealevel;temperature;humidity
6506;BME280;3286;49.858;8.768;2022-07-23T00:00:23;99103.34;;;24.45;45.99
6506;BME280;3286;49.858;8.768;2022-07-23T00:02:52;99100.50;;;24.86;45.27
6506;BME280;3286;49.858;8.768;2022-07-23T00:05:21;99098.34;;;24.37;46.67
6506;BME280;3286;49.858;8.768;2022-07-23T00:07:50;99106.94;;;24.34;46.50
6506;BME280;3286;49.858;8.768;2022-07-23T00:10:19;99112.44;;;24.56;45.57
6506;BME280;3286;49.858;8.768;2022-07-23T00:12:46;99119.06;;;24.48;46.66
6506;BME280;3286;49.858;8.768;2022-07-23T00:15:18;99124.03;;;24.56;46.44
6506;BME280;3286;49.858;8.768;2022-07-23T00:17:46;99125.59;;;24.52;46.33
6506;BME280;3286;49.858;8.768;2022-07-23T00:20:15;99131.16;;;24.45;45.81
6506;BME280;3286;49.858;8.768;2022-07-23T00:22:46;99137.66;;;24.15;46.85
6506;BME280;3286;49.858;8.768;2022-07-23T00:25:14;99128.81;;;24.20;46.26
6506;BME280;3286;49.858;8.768;2022-07-23T00:27:45;99142.47;;;24.13;46.40
6506;BME280;3286;49.858;8.768;2022-07-23T00:30:16;99148.00;;;24.07;46.98
6506;BME280;3286;49.858;8.768;2022-07-23T00:32:47;99147.53;;;24.10;46.80
6506;BME280;3286;49.858;8.768;2022-07-23T00:35:16;99136.41;;;23.94;47.22
6506;BME280;3286;49.858;8.768;2022-07-23T00:37:46;99125.81;;;23.64;48.32
6506;BME280;3286;49.858;8.768;2022-07-23T00:40:14;99121.22;;;23.76;47.88
6506;BME280;3286;49.858;8.768;2022-07-23T00:42:41;99110.34;;;24.00;47.12
6506;BME280;3286;49.858;8.768;2022-07-23T00:45:08;99087.94;;;24.11;47.34
6506;BME280;3286;49.858;8.768;2022-07-23T00:47:35;99061.38;;;24.37;46.56
6506;BME280;3286;49.858;8.768;2022-07-23T00:50:05;99066.56;;;24.10;47.94
6506;BME280;3286;49.858;8.768;2022-07-23T00:52:33;99070.94;;;23.99;47.25
6506;BME280;3286;49.858;8.768;2022-07-23T00:55:00;99067.38;;;23.81;48.00
6506;BME280;3286;49.858;8.768;2022-07-23T00:57:30;99077.25;;;23.76;48.10
6506;BME280;3286;49.858;8.768;2022-07-23T00:59:59;99082.22;;;23.96;48.07
6506;BME280;3286;49.858;8.768;2022-07-23T01:02:28;99099.41;;;23.78;49.20
6506;BME280;3286;49.858;8.768;2022-07-23T01:04:55;99108.75;;;23.58;50.02
6506;BME280;3286;49.858;8.768;2022-07-23T01:07:23;99113.94;;;23.36;50.25
6506;BME280;3286;49.858;8.768;2022-07-23T01:09:51;99118.47;;;23.59;49.21
6506;BME280;3286;49.858;8.768;2022-07-23T01:12:18;99124.34;;;23.56;48.53
6506;BME280;3286;49.858;8.768;2022-07-23T01:14:54;99131.59;;;23.96;47.82
6506;BME280;3286;49.858;8.768;2022-07-23T01:17:21;99156.63;;;23.80;48.31
6506;BME280;3286;49.858;8.768;2022-07-23T01:19:50;99144.44;;;23.77;49.08
6506;BME280;3286;49.858;8.768;2022-07-23T01:22:18;99160.91;;;23.16;50.31
6506;BME280;3286;49.858;8.768;2022-07-23T01:24:46;99143.22;;;23.56;49.09
6506;BME280;3286;49.858;8.768;2022-07-23T01:27:13;99148.50;;;23.51;48.97
6506;BME280;3286;49.858;8.768;2022-07-23T01:29:43;99146.19;;;23.31;49.98
6506;BME280;3286;49.858;8.768;2022-07-23T01:32:09;99147.97;;;22.70;51.85
6506;BME280;3286;49.858;8.768;2022-07-23T01:34:41;99151.03;;;22.74;51.92
6506;BME280;3286;49.858;8.768;2022-07-23T01:37:10;99154.22;;;23.07;51.84
6506;BME280;3286;49.858;8.768;2022-07-23T01:39:37;99127.75;;;23.04;51.56
6506;BME280;3286;49.858;8.768;2022-07-23T01:42:05;99124.72;;;22.88;52.32
6506;BME280;3286;49.858;8.768;2022-07-23T01:44:35;99118.38;;;23.18;52.16
6506;BME280;3286;49.858;8.768;2022-07-23T01:47:04;99125.78;;;22.45;54.04
6506;BME280;3286;49.858;8.768;2022-07-23T01:49:30;99133.13;;;22.80;53.48
6506;BME280;3286;49.858;8.768;2022-07-23T01:51:59;99118.81;;;22.55;54.43
6506;BME280;3286;49.858;8.768;2022-07-23T01:54:27;99118.91;;;22.61;54.19
6506;BME280;3286;49.858;8.768;2022-07-23T01:56:56;99132.31;;;22.79;54.00
6506;BME280;3286;49.858;8.768;2022-07-23T01:59:24;99129.50;;;22.74;54.23
6506;BME280;3286;49.858;8.768;2022-07-23T02:01:51;99138.16;;;22.76;53.82
6506;BME280;3286;49.858;8.768;2022-07-23T02:04:18;99134.44;;;22.16;55.69
6506;BME280;3286;49.858;8.768;2022-07-23T02:06:45;99125.78;;;22.14;55.39
6506;BME280;3286;49.858;8.768;2022-07-23T02:09:12;99123.66;;;22.35;54.25
6506;BME280;3286;49.858;8.768;2022-07-23T02:11:40;99132.75;;;22.64;53.63
6506;BME280;3286;49.858;8.768;2022-07-23T02:14:11;99142.56;;;22.47;54.42
6506;BME280;3286;49.858;8.768;2022-07-23T02:16:39;99155.56;;;22.62;53.65
6506;BME280;3286;49.858;8.768;2022-07-23T02:19:09;99157.66;;;22.48;54.19
6506;BME280;3286;49.858;8.768;2022-07-23T02:21:35;99154.75;;;22.31;54.29
6506;BME280;3286;49.858;8.768;2022-07-23T02:24:05;99151.28;;;22.11;54.76
6506;BME280;3286;49.858;8.768;2022-07-23T02:26:32;99158.59;;;22.23;54.14
6506;BME280;3286;49.858;8.768;2022-07-23T02:29:00;99170.94;;;22.12;54.94
6506;BME280;3286;49.858;8.768;2022-07-23T02:31:27;99165.19;;;22.08;54.52
6506;BME280;3286;49.858;8.768;2022-07-23T02:33:55;99151.06;;;22.13;54.43
6506;BME280;3286;49.858;8.768;2022-07-23T02:36:24;99159.09;;;22.43;53.64
6506;BME280;3286;49.858;8.768;2022-07-23T02:38:51;99145.06;;;22.84;53.20
6506;BME280;3286;49.858;8.768;2022-07-23T02:41:20;99142.56;;;22.47;53.56
6506;BME280;3286;49.858;8.768;2022-07-23T02:43:50;99138.84;;;22.29;53.86
6506;BME280;3286;49.858;8.768;2022-07-23T02:46:18;99137.19;;;22.58;53.63
6506;BME280;3286;49.858;8.768;2022-07-23T02:48:44;99146.22;;;22.64;53.41
6506;BME280;3286;49.858;8.768;2022-07-23T02:51:13;99151.03;;;22.74;53.03
6506;BME280;3286;49.858;8.768;2022-07-23T02:53:42;99156.41;;;22.62;53.33
6506;BME280;3286;49.858;8.768;2022-07-23T02:56:09;99160.50;;;22.34;54.60
6506;BME280;3286;49.858;8.768;2022-07-23T02:58:38;99143.03;;;22.25;54.62
6506;BME280;3286;49.858;8.768;2022-07-23T03:01:07;99127.94;;;21.75;56.07
6506;BME280;3286;49.858;8.768;2022-07-23T03:03:34;99118.75;;;21.82;56.59
6506;BME280;3286;49.858;8.768;2022-07-23T03:06:03;99144.81;;;22.00;56.52
6506;BME280;3286;49.858;8.768;2022-07-23T03:08:31;99159.38;;;21.93;56.75
6506;BME280;3286;49.858;8.768;2022-07-23T03:10:59;99157.88;;;21.97;55.84
6506;BME280;3286;49.858;8.768;2022-07-23T03:13:26;99158.19;;;21.89;56.45
6506;BME280;3286;49.858;8.768;2022-07-23T03:15:54;99165.34;;;21.95;56.39
6506;BME280;3286;49.858;8.768;2022-07-23T03:18:24;99164.03;;;21.67;57.41
6506;BME280;3286;49.858;8.768;2022-07-23T03:20:50;99165.31;;;21.64;57.43
6506;BME280;3286;49.858;8.768;2022-07-23T03:23:19;99158.66;;;21.67;57.25
6506;BME280;3286;49.858;8.768;2022-07-23T03:25:47;99153.25;;;21.48;57.80
6506;BME280;3286;49.858;8.768;2022-07-23T03:28:19;99157.06;;;21.15;58.54
6506;BME280;3286;49.858;8.768;2022-07-23T03:30:48;99164.72;;;21.37;58.30
6506;BME280;3286;49.858;8.768;2022-07-23T03:33:18;99195.25;;;21.87;57.35
6506;BME280;3286;49.858;8.768;2022-07-23T03:35:46;99211.44;;;21.98;56.84
6506;BME280;3286;49.858;8.768;2022-07-23T03:38:13;99209.38;;;21.56;58.26
6506;BME280;3286;49.858;8.768;2022-07-23T03:40:40;99192.56;;;21.68;57.58
6506;BME280;3286;49.858;8.768;2022-07-23T03:43:08;99201.28;;;21.82;57.61
6506;BME280;3286;49.858;8.768;2022-07-23T03:45:38;99197.28;;;21.91;57.31
6506;BME280;3286;49.858;8.768;2022-07-23T03:48:06;99203.09;;;21.69;58.02
6506;BME280;3286;49.858;8.768;2022-07-23T03:50:33;99209.06;;;21.90;57.83
6506;BME280;3286;49.858;8.768;2022-07-23T03:53:00;99207.34;;;21.77;57.39
6506;BME280;3286;49.858;8.768;2022-07-23T03:55:27;99207.41;;;21.70;57.33
6506;BME280;3286;49.858;8.768;2022-07-23T03:57:53;99223.34;;;21.47;58.67
6506;BME280;3286;49.858;8.768;2022-07-23T04:00:22;99224.47;;;21.57;58.45
6506;BME280;3286;49.858;8.768;2022-07-23T04:02:49;99220.19;;;21.75;57.86
6506;BME280;3286;49.858;8.768;2022-07-23T04:05:22;99224.00;;;21.67;57.59
6506;BME280;3286;49.858;8.768;2022-07-23T04:07:48;99230.06;;;21.56;57.52
6506;BME280;3286;49.858;8.768;2022-07-23T04:10:20;99214.44;;;21.71;57.32
6506;BME280;3286;49.858;8.768;2022-07-23T04:15:13;99214.00;;;21.31;58.81
6506;BME280;3286;49.858;8.768;2022-07-23T04:17:41;99208.84;;;21.73;57.72
6506;BME280;3286;49.858;8.768;2022-07-23T04:20:10;99218.00;;;21.21;58.76
6506;BME280;3286;49.858;8.768;2022-07-23T04:22:41;99214.53;;;21.65;56.72
6506;BME280;3286;49.858;8.768;2022-07-23T04:25:08;99215.88;;;21.49;57.59
6506;BME280;3286;49.858;8.768;2022-07-23T04:27:34;99223.63;;;21.82;56.79
6506;BME280;3286;49.858;8.768;2022-07-23T04:30:01;99234.56;;;21.62;57.75
6506;BME280;3286;49.858;8.768;2022-07-23T04:32:28;99246.22;;;21.31;58.07
6506;BME280;3286;49.858;8.768;2022-07-23T04:34:57;99242.59;;;21.18;58.61
6506;BME280;3286;49.858;8.768;2022-07-23T04:37:25;99239.28;;;21.41;58.11
6506;BME280;3286;49.858;8.768;2022-07-23T04:39:55;99245.50;;;21.17;58.56
6506;BME280;3286;49.858;8.768;2022-07-23T04:42:23;99241.19;;;21.60;57.37
6506;BME280;3286;49.858;8.768;2022-07-23T04:44:49;99249.19;;;21.48;57.44
6506;BME280;3286;49.858;8.768;2022-07-23T04:47:18;99246.13;;;21.88;56.72
6506;BME280;3286;49.858;8.768;2022-07-23T04:49:50;99260.84;;;22.04;56.37
6506;BME280;3286;49.858;8.768;2022-07-23T04:52:20;99272.78;;;21.90;56.42
6506;BME280;3286;49.858;8.768;2022-07-23T04:54:46;99280.47;;;21.35;57.87
6506;BME280;3286;49.858;8.768;2022-07-23T04:57:13;99285.75;;;21.74;56.41
6506;BME280;3286;49.858;8.768;2022-07-23T04:59:40;99292.81;;;22.12;55.62
6506;BME280;3286;49.858;8.768;2022-07-23T05:02:09;99284.28;;;21.78;56.02
6506;BME280;3286;49.858;8.768;2022-07-23T05:04:37;99280.75;;;21.52;57.53
6506;BME280;3286;49.858;8.768;2022-07-23T05:07:04;99275.47;;;21.71;56.60
6506;BME280;3286;49.858;8.768;2022-07-23T05:09:32;99283.69;;;21.51;57.09
6506;BME280;3286;49.858;8.768;2022-07-23T05:11:59;99287.00;;;21.46;57.29
6506;BME280;3286;49.858;8.768;2022-07-23T05:14:26;99286.88;;;21.60;57.01
6506;BME280;3286;49.858;8.768;2022-07-23T05:16:53;99289.41;;;21.80;56.51
6506;BME280;3286;49.858;8.768;2022-07-23T05:19:20;99289.38;;;21.61;56.94
6506;BME280;3286;49.858;8.768;2022-07-23T05:21:49;99287.16;;;21.77;56.17
6506;BME280;3286;49.858;8.768;2022-07-23T05:24:18;99288.47;;;21.74;56.15
6506;BME280;3286;49.858;8.768;2022-07-23T05:26:46;99291.59;;;21.46;57.39
6506;BME280;3286;49.858;8.768;2022-07-23T05:29:13;99284.28;;;21.53;57.09
6506;BME280;3286;49.858;8.768;2022-07-23T05:31:43;99292.34;;;21.27;58.60
6506;BME280;3286;49.858;8.768;2022-07-23T05:34:15;99295.91;;;21.72;57.75
6506;BME280;3286;49.858;8.768;2022-07-23T05:36:41;99301.06;;;21.48;57.46
6506;BME280;3286;49.858;8.768;2022-07-23T05:39:08;99292.69;;;21.82;56.50
6506;BME280;3286;49.858;8.768;2022-07-23T05:41:35;99293.69;;;21.62;56.67
6506;BME280;3286;49.858;8.768;2022-07-23T05:44:06;99292.81;;;21.43;57.68
6506;BME280;3286;49.858;8.768;2022-07-23T05:46:35;99305.53;;;21.54;57.05
6506;BME280;3286;49.858;8.768;2022-07-23T05:49:02;99309.81;;;21.88;55.63
6506;BME280;3286;49.858;8.768;2022-07-23T05:51:34;99311.97;;;21.53;56.90
6506;BME280;3286;49.858;8.768;2022-07-23T05:54:03;99320.63;;;21.81;56.65
6506;BME280;3286;49.858;8.768;2022-07-23T05:56:30;99326.00;;;21.30;58.01
6506;BME280;3286;49.858;8.768;2022-07-23T05:58:57;99337.00;;;21.54;57.53
6506;BME280;3286;49.858;8.768;2022-07-23T06:01:25;99332.22;;;21.56;57.40
6506;BME280;3286;49.858;8.768;2022-07-23T06:03:52;99333.91;;;21.50;57.80
6506;BME280;3286;49.858;8.768;2022-07-23T06:06:19;99343.47;;;22.34;54.53
6506;BME280;3286;49.858;8.768;2022-07-23T06:08:45;99336.88;;;21.93;55.90
6506;BME280;3286;49.858;8.768;2022-07-23T06:11:12;99325.63;;;21.52;57.17
6506;BME280;3286;49.858;8.768;2022-07-23T06:13:42;99334.50;;;22.03;55.77
6506;BME280;3286;49.858;8.768;2022-07-23T06:16:10;99328.91;;;22.42;54.11
6506;BME280;3286;49.858;8.768;2022-07-23T06:18:41;99327.94;;;22.18;54.49
6506;BME280;3286;49.858;8.768;2022-07-23T06:21:11;99323.06;;;21.89;54.70
6506;BME280;3286;49.858;8.768;2022-07-23T06:23:42;99318.09;;;22.49;53.82
6506;BME280;3286;49.858;8.768;2022-07-23T06:26:09;99320.84;;;22.05;55.07
6506;BME280;3286;49.858;8.768;2022-07-23T06:28:40;99321.22;;;22.08;54.66
6506;BME280;3286;49.858;8.768;2022-07-23T06:31:07;99296.47;;;22.37;53.85
6506;BME280;3286;49.858;8.768;2022-07-23T06:33:33;99299.38;;;21.79;55.87
6506;BME280;3286;49.858;8.768;2022-07-23T06:36:01;99298.00;;;21.70;55.64
6506;BME280;3286;49.858;8.768;2022-07-23T06:38:28;99302.09;;;21.47;55.94
6506;BME280;3286;49.858;8.768;2022-07-23T06:40:58;99299.97;;;22.00;55.37
6506;BME280;3286;49.858;8.768;2022-07-23T06:43:24;99304.84;;;21.91;56.33
6506;BME280;3286;49.858;8.768;2022-07-23T06:45:57;99313.06;;;22.15;54.46
6506;BME280;3286;49.858;8.768;2022-07-23T06:48:26;99316.94;;;22.56;53.36
6506;BME280;3286;49.858;8.768;2022-07-23T06:50:55;99312.63;;;22.55;52.97
6506;BME280;3286;49.858;8.768;2022-07-23T06:53:23;99321.28;;;22.76;52.88
6506;BME280;3286;49.858;8.768;2022-07-23T06:55:52;99322.59;;;22.85;51.68
6506;BME280;3286;49.858;8.768;2022-07-23T06:58:20;99321.50;;;23.05;51.87
6506;BME280;3286;49.858;8.768;2022-07-23T07:00:50;99327.16;;;22.85;52.75
6506;BME280;3286;49.858;8.768;2022-07-23T07:03:17;99331.25;;;22.88;52.02
6506;BME280;3286;49.858;8.768;2022-07-23T07:05:44;99336.38;;;22.40;52.99
6506;BME280;3286;49.858;8.768;2022-07-23T07:08:11;99338.56;;;22.68;52.49
6506;BME280;3286;49.858;8.768;2022-07-23T07:10:41;99339.66;;;22.79;52.07
6506;BME280;3286;49.858;8.768;2022-07-23T07:13:10;99332.88;;;23.50;50.10
6506;BME280;3286;49.858;8.768;2022-07-23T07:15:42;99337.56;;;23.66;50.17
6506;BME280;3286;49.858;8.768;2022-07-23T07:18:08;99340.63;;;23.58;50.33
6506;BME280;3286;49.858;8.768;2022-07-23T07:20:38;99345.19;;;23.69;50.01
6506;BME280;3286;49.858;8.768;2022-07-23T07:23:09;99343.34;;;24.06;48.66
6506;BME280;3286;49.858;8.768;2022-07-23T07:25:36;99355.69;;;24.66;47.52
6506;BME280;3286;49.858;8.768;2022-07-23T07:28:08;99357.44;;;24.60;47.71
6506;BME280;3286;49.858;8.768;2022-07-23T07:30:35;99350.38;;;24.71;46.94
6506;BME280;3286;49.858;8.768;2022-07-23T07:33:04;99356.72;;;25.06;45.72
6506;BME280;3286;49.858;8.768;2022-07-23T07:35:31;99361.53;;;25.04;46.19
6506;BME280;3286;49.858;8.768;2022-07-23T07:37:58;99360.59;;;25.10;46.70
6506;BME280;3286;49.858;8.768;2022-07-23T07:40:24;99366.75;;;25.23;45.46
6506;BME280;3286;49.858;8.768;2022-07-23T07:42:55;99369.06;;;25.02;45.48
6506;BME280;3286;49.858;8.768;2022-07-23T07:45:24;99374.78;;;25.17;45.32
6506;BME280;3286;49.858;8.768;2022-07-23T07:47:52;99371.94;;;25.41;45.01
6506;BME280;3286;49.858;8.768;2022-07-23T07:50:19;99376.09;;;25.32;45.06
6506;BME280;3286;49.858;8.768;2022-07-23T07:52:46;99378.84;;;25.83;44.42
6506;BME280;3286;49.858;8.768;2022-07-23T07:55:13;99379.72;;;25.38;45.26
6506;BME280;3286;49.858;8.768;2022-07-23T07:57:42;99383.00;;;25.40;45.61
6506;BME280;3286;49.858;8.768;2022-07-23T08:00:10;99377.66;;;25.74;43.88
6506;BME280;3286;49.858;8.768;2022-07-23T08:02:43;99375.31;;;25.83;43.99
6506;BME280;3286;49.858;8.768;2022-07-23T08:05:11;99385.91;;;25.84;43.81
6506;BME280;3286;49.858;8.768;2022-07-23T08:07:40;99390.00;;;25.53;44.49
6506;BME280;3286;49.858;8.768;2022-07-23T08:10:09;99389.09;;;25.47;44.83
6506;BME280;3286;49.858;8.768;2022-07-23T08:12:42;99388.41;;;25.40;45.72
6506;BME280;3286;49.858;8.768;2022-07-23T08:15:10;99382.13;;;25.51;45.26
6506;BME280;3286;49.858;8.768;2022-07-23T08:17:45;99392.47;;;25.54;45.71
6506;BME280;3286;49.858;8.768;2022-07-23T08:20:16;99387.91;;;25.43;46.53
6506;BME280;3286;49.858;8.768;2022-07-23T08:22:45;99393.72;;;24.77;46.74
6506;BME280;3286;49.858;8.768;2022-07-23T08:25:15;99399.03;;;24.48;47.14
6506;BME280;3286;49.858;8.768;2022-07-23T08:27:42;99397.22;;;24.12;48.30
6506;BME280;3286;49.858;8.768;2022-07-23T08:30:09;99397.34;;;24.70;47.11
6506;BME280;3286;49.858;8.768;2022-07-23T08:32:55;99405.78;;;25.44;45.93
6506;BME280;3286;49.858;8.768;2022-07-23T08:35:26;99409.03;;;25.00;46.79
6506;BME280;3286;49.858;8.768;2022-07-23T08:37:57;99414.16;;;25.13;46.12
6506;BME280;3286;49.858;8.768;2022-07-23T08:40:26;99419.97;;;25.22;45.12
6506;BME280;3286;49.858;8.768;2022-07-23T08:42:53;99419.84;;;25.29;45.24
6506;BME280;3286;49.858;8.768;2022-07-23T08:45:22;99414.53;;;25.97;44.09
6506;BME280;3286;49.858;8.768;2022-07-23T08:47:55;99413.25;;;26.39;43.44
6506;BME280;3286;49.858;8.768;2022-07-23T08:50:22;99417.06;;;26.21;44.30
6506;BME280;3286;49.858;8.768;2022-07-23T08:52:50;99410.75;;;25.64;43.39
6506;BME280;3286;49.858;8.768;2022-07-23T08:55:18;99403.84;;;26.08;42.99
6506;BME280;3286;49.858;8.768;2022-07-23T08:57:50;99398.19;;;27.15;40.65
6506;BME280;3286;49.858;8.768;2022-07-23T09:00:20;99397.03;;;27.61;39.43
6506;BME280;3286;49.858;8.768;2022-07-23T09:02:49;99408.81;;;26.72;41.38
6506;BME280;3286;49.858;8.768;2022-07-23T09:05:18;99398.25;;;27.81;39.61
6506;BME280;3286;49.858;8.768;2022-07-23T09:08:14;99397.00;;;27.99;39.27
6506;BME280;3286;49.858;8.768;2022-07-23T09:10:50;99406.16;;;27.27;41.53
6506;BME280;3286;49.858;8.768;2022-07-23T09:13:38;99401.00;;;26.98;40.71
6506;BME280;3286;49.858;8.768;2022-07-23T09:16:08;99398.81;;;27.23;41.27
6506;BME280;3286;49.858;8.768;2022-07-23T09:18:46;99397.09;;;27.71;39.78
6506;BME280;3286;49.858;8.768;2022-07-23T09:21:21;99392.19;;;27.68;38.93
6506;BME280;3286;49.858;8.768;2022-07-23T09:23:54;99389.13;;;28.35;37.10
6506;BME280;3286;49.858;8.768;2022-07-23T09:26:28;99395.63;;;27.58;40.26
6506;BME280;3286;49.858;8.768;2022-07-23T09:29:01;99391.06;;;28.40;38.92
6506;BME280;3286;49.858;8.768;2022-07-23T09:31:33;99394.72;;;28.76;38.56
6506;BME280;3286;49.858;8.768;2022-07-23T09:34:08;99397.56;;;29.02;36.17
6506;BME280;3286;49.858;8.768;2022-07-23T09:36:37;99399.66;;;28.85;36.78
6506;BME280;3286;49.858;8.768;2022-07-23T09:39:04;99389.97;;;28.41;37.50
6506;BME280;3286;49.858;8.768;2022-07-23T09:41:38;99395.84;;;28.81;36.86
6506;BME280;3286;49.858;8.768;2022-07-23T09:44:13;99397.94;;;28.58;36.83
6506;BME280;3286;49.858;8.768;2022-07-23T09:46:41;99398.50;;;28.70;36.13
6506;BME280;3286;49.858;8.768;2022-07-23T09:49:14;99399.66;;;28.80;36.81
6506;BME280;3286;49.858;8.768;2022-07-23T09:51:51;99391.56;;;29.00;36.64
6506;BME280;3286;49.858;8.768;2022-07-23T09:54:27;99386.47;;;29.40;35.59
6506;BME280;3286;49.858;8.768;2022-07-23T09:56:56;99387.00;;;30.15;34.75
6506;BME280;3286;49.858;8.768;2022-07-23T09:59:24;99393.28;;;29.48;35.16
6506;BME280;3286;49.858;8.768;2022-07-23T10:01:54;99394.59;;;29.30;35.14
6506;BME280;3286;49.858;8.768;2022-07-23T10:04:23;99387.28;;;29.67;35.16
6506;BME280;3286;49.858;8.768;2022-07-23T10:06:54;99379.91;;;29.88;35.40
6506;BME280;3286;49.858;8.768;2022-07-23T10:09:24;99392.19;;;29.90;34.72
6506;BME280;3286;49.858;8.768;2022-07-23T10:11:53;99389.63;;;30.35;34.55
6506;BME280;3286;49.858;8.768;2022-07-23T10:14:23;99389.47;;;30.01;33.24
6506;BME280;3286;49.858;8.768;2022-07-23T10:16:52;99394.84;;;29.18;35.72
6506;BME280;3286;49.858;8.768;2022-07-23T10:19:21;99388.09;;;29.41;34.81
6506;BME280;3286;49.858;8.768;2022-07-23T10:21:57;99395.69;;;29.18;35.11
6506;BME280;3286;49.858;8.768;2022-07-23T10:24:39;99377.16;;;30.24;33.16
6506;BME280;3286;49.858;8.768;2022-07-23T10:27:22;99380.69;;;30.30;32.77
6506;BME280;3286;49.858;8.768;2022-07-23T10:29:55;99387.00;;;29.53;34.32
6506;BME280;3286;49.858;8.768;2022-07-23T10:32:34;99393.22;;;29.17;33.38
6506;BME280;3286;49.858;8.768;2022-07-23T10:35:10;99383.44;;;29.11;34.80
6506;BME280;3286;49.858;8.768;2022-07-23T10:37:44;99385.91;;;29.85;34.08
6506;BME280;3286;49.858;8.768;2022-07-23T10:40:13;99376.69;;;29.65;34.05
6506;BME280;3286;49.858;8.768;2022-07-23T10:42:48;99366.28;;;29.98;33.22
6506;BME280;3286;49.858;8.768;2022-07-23T10:45:27;99363.38;;;30.66;32.82
6506;BME280;3286;49.858;8.768;2022-07-23T10:47:54;99373.34;;;30.91;31.48
6506;BME280;3286;49.858;8.768;2022-07-23T10:50:23;99375.50;;;30.94;31.08
6506;BME280;3286;49.858;8.768;2022-07-23T10:53:19;99373.44;;;31.20;31.31
6506;BME280;3286;49.858;8.768;2022-07-23T10:55:51;99361.22;;;30.57;30.71
6506;BME280;3286;49.858;8.768;2022-07-23T10:58:23;99368.44;;;30.88;31.10
6506;BME280;3286;49.858;8.768;2022-07-23T11:00:52;99360.63;;;31.21;30.10
6506;BME280;3286;49.858;8.768;2022-07-23T11:03:30;99369.31;;;31.28;30.18
6506;BME280;3286;49.858;8.768;2022-07-23T11:06:02;99367.38;;;30.84;31.10
6506;BME280;3286;49.858;8.768;2022-07-23T11:08:32;99361.06;;;31.68;30.82
6506;BME280;3286;49.858;8.768;2022-07-23T11:11:13;99355.59;;;31.98;30.46
6506;BME280;3286;49.858;8.768;2022-07-23T11:13:49;99356.78;;;31.91;29.99
6506;BME280;3286;49.858;8.768;2022-07-23T11:16:24;99356.66;;;31.43;30.12
6506;BME280;3286;49.858;8.768;2022-07-23T11:19:03;99372.00;;;30.07;32.35
6506;BME280;3286;49.858;8.768;2022-07-23T11:21:59;99369.81;;;29.00;33.29
6506;BME280;3286;49.858;8.768;2022-07-23T11:24:29;99370.63;;;28.96;32.99
6506;BME280;3286;49.858;8.768;2022-07-23T11:27:07;99369.06;;;29.72;31.92
6506;BME280;3286;49.858;8.768;2022-07-23T11:29:38;99359.00;;;29.62;31.88
6506;BME280;3286;49.858;8.768;2022-07-23T11:32:08;99364.41;;;29.68;32.37
6506;BME280;3286;49.858;8.768;2022-07-23T11:34:49;99354.91;;;30.01;32.30
6506;BME280;3286;49.858;8.768;2022-07-23T11:37:28;99354.75;;;30.43;31.72
6506;BME280;3286;49.858;8.768;2022-07-23T11:39:57;99352.84;;;30.38;30.59
6506;BME280;3286;49.858;8.768;2022-07-23T11:42:26;99350.97;;;30.28;31.16
6506;BME280;3286;49.858;8.768;2022-07-23T11:44:53;99357.34;;;30.74;30.56
6506;BME280;3286;49.858;8.768;2022-07-23T11:47:23;99350.94;;;31.69;29.73
6506;BME280;3286;49.858;8.768;2022-07-23T11:49:53;99347.47;;;30.88;30.09
6506;BME280;3286;49.858;8.768;2022-07-23T11:52:21;99359.75;;;30.10;32.53
6506;BME280;3286;49.858;8.768;2022-07-23T11:54:49;99352.19;;;29.55;33.93
6506;BME280;3286;49.858;8.768;2022-07-23T11:57:25;99346.19;;;30.70;31.49
6506;BME280;3286;49.858;8.768;2022-07-23T11:59:54;99343.88;;;30.93;30.79
6506;BME280;3286;49.858;8.768;2022-07-23T12:02:21;99334.69;;;31.24;29.42
6506;BME280;3286;49.858;8.768;2022-07-23T12:04:50;99328.81;;;30.61;31.32
6506;BME280;3286;49.858;8.768;2022-07-23T12:07:28;99331.06;;;30.38;31.20
6506;BME280;3286;49.858;8.768;2022-07-23T12:09:57;99327.16;;;31.74;29.97
6506;BME280;3286;49.858;8.768;2022-07-23T12:12:26;99336.34;;;30.74;31.10
6506;BME280;3286;49.858;8.768;2022-07-23T12:14:56;99320.94;;;30.94;30.74
6506;BME280;3286;49.858;8.768;2022-07-23T12:17:30;99326.47;;;31.58;31.66
6506;BME280;3286;49.858;8.768;2022-07-23T12:19:58;99329.84;;;31.50;30.87
6506;BME280;3286;49.858;8.768;2022-07-23T12:22:34;99325.53;;;31.44;29.65
6506;BME280;3286;49.858;8.768;2022-07-23T12:25:05;99331.53;;;30.61;31.43
6506;BME280;3286;49.858;8.768;2022-07-23T12:27:36;99323.25;;;30.76;31.69
6506;BME280;3286;49.858;8.768;2022-07-23T12:30:21;99325.78;;;30.62;32.32
6506;BME280;3286;49.858;8.768;2022-07-23T12:32:49;99324.09;;;30.72;31.34
6506;BME280;3286;49.858;8.768;2022-07-23T12:35:17;99320.41;;;30.47;32.31
6506;BME280;3286;49.858;8.768;2022-07-23T12:37:47;99321.50;;;30.35;31.54
6506;BME280;3286;49.858;8.768;2022-07-23T12:40:36;99330.53;;;30.36;32.88
6506;BME280;3286;49.858;8.768;2022-07-23T12:43:10;99316.88;;;31.61;30.38
6506;BME280;3286;49.858;8.768;2022-07-23T12:45:46;99320.19;;;31.58;29.61
6506;BME280;3286;49.858;8.768;2022-07-23T12:48:19;99317.06;;;30.60;30.15
6506;BME280;3286;49.858;8.768;2022-07-23T12:50:57;99325.19;;;31.50;30.12
6506;BME280;3286;49.858;8.768;2022-07-23T12:53:26;99319.22;;;32.27;29.02
6506;BME280;3286;49.858;8.768;2022-07-23T12:55:58;99318.34;;;32.94;28.25
6506;BME280;3286;49.858;8.768;2022-07-23T12:58:43;99324.56;;;33.52;26.26
6506;BME280;3286;49.858;8.768;2022-07-23T13:01:22;99321.22;;;33.55;25.96
6506;BME280;3286;49.858;8.768;2022-07-23T13:03:56;99325.81;;;32.20;28.56
6506;BME280;3286;49.858;8.768;2022-07-23T13:06:25;99328.41;;;32.36;27.75
6506;BME280;3286;49.858;8.768;2022-07-23T13:08:52;99324.44;;;31.45;29.71
6506;BME280;3286;49.858;8.768;2022-07-23T13:11:19;99327.19;;;30.60;30.83
6506;BME280;3286;49.858;8.768;2022-07-23T13:13:47;99332.56;;;29.73;32.34
6506;BME280;3286;49.858;8.768;2022-07-23T13:16:14;99332.94;;;30.48;29.72
6506;BME280;3286;49.858;8.768;2022-07-23T13:18:41;99331.84;;;30.94;30.09
6506;BME280;3286;49.858;8.768;2022-07-23T13:21:10;99333.03;;;30.22;31.79
6506;BME280;3286;49.858;8.768;2022-07-23T13:23:37;99334.56;;;30.49;30.66
6506;BME280;3286;49.858;8.768;2022-07-23T13:26:04;99332.44;;;30.30;32.32
6506;BME280;3286;49.858;8.768;2022-07-23T13:28:31;99332.81;;;29.92;33.85
6506;BME280;3286;49.858;8.768;2022-07-23T13:31:00;99332.28;;;30.01;32.17
6506;BME280;3286;49.858;8.768;2022-07-23T13:33:27;99326.53;;;29.97;32.60
6506;BME280;3286;49.858;8.768;2022-07-23T13:35:55;99327.78;;;30.36;31.35
6506;BME280;3286;49.858;8.768;2022-07-23T13:38:22;99318.63;;;31.17;29.77